Time;durP1;ratioP1;P1;durP2;ratioP2;P2;SDS_P1;SDS_P2;PMS_P1;PMS_P2;Temp;Humidity;BMP_temperature;BMP_pressure;BME280_temperature;BME280_humidity;BME280_pressure;Samples;Min_cycle;Max_cycle;Signal;HPM_P1;HPM_P2
2021/08/22 00:00:25;;;;;;;1999.90;999.90;;;20.90;99.90;;;;;;5058086;28;20399;-78
2021/08/22 00:02:51;;;;;;;1999.90;999.90;;;20.90;99.90;;;;;;5058282;28;20398;-78
2021/08/22 00:05:16;;;;;;;1999.90;999.90;;;21.00;99.90;;;;;;5039827;28;20445;-78
2021/08/22 00:07:42;;;;;;;1999.90;999.90;;;21.00;99.90;;;;;;5058265;28;20188;-78
2021/08/22 00:10:08;;;;;;;1999.90;999.90;;;21.00;99.90;;;;;;5040301;28;20644;-78
2021/08/22 00:12:34;;;;;;;1999.90;999.90;;;21.00;99.90;;;;;;5058514;28;20168;-78
2021/08/22 00:14:59;;;;;;;1999.90;999.90;;;21.00;99.90;;;;;;5058524;28;20394;-79
2021/08/22 00:17:25;;;;;;;1999.90;999.90;;;21.00;99.90;;;;;;5040020;28;20184;-79
2021/08/22 00:19:51;;;;;;;1999.90;999.90;;;21.10;99.90;;;;;;5040121;28;20521;-79
2021/08/22 00:22:16;;;;;;;1999.90;999.90;;;21.00;99.90;;;;;;5058436;28;20173;-79
2021/08/22 00:24:42;;;;;;;1999.90;999.90;;;20.90;99.90;;;;;;5058057;28;20173;-79
2021/08/22 00:27:08;;;;;;;1999.90;999.90;;;20.70;99.90;;;;;;5057889;28;20193;-80
2021/08/22 00:29:34;;;;;;;1999.90;999.90;;;20.70;99.90;;;;;;5040378;28;20234;-79
2021/08/22 00:32:01;;;;;;;1999.90;999.90;;;20.60;99.90;;;;;;5057871;28;20455;-79
2021/08/22 00:34:27;;;;;;;1999.90;999.90;;;20.70;99.90;;;;;;5057726;28;20165;-79
2021/08/22 00:36:54;;;;;;;1999.90;999.90;;;20.70;99.90;;;;;;5040264;28;20426;-79
2021/08/22 00:39:20;;;;;;;1999.90;999.90;;;20.70;99.90;;;;;;5057750;28;20169;-79
2021/08/22 00:41:46;;;;;;;1999.90;999.90;;;20.70;99.90;;;;;;5039294;28;20933;-79
2021/08/22 00:44:12;;;;;;;1999.90;999.90;;;20.70;99.90;;;;;;5057467;28;20395;-79
2021/08/22 00:46:38;;;;;;;1999.90;999.90;;;20.70;99.90;;;;;;5040273;28;20192;-79
2021/08/22 00:49:05;;;;;;;1999.90;999.90;;;20.60;99.90;;;;;;5057861;28;20192;-79
2021/08/22 00:51:30;;;;;;;1999.90;999.90;;;20.60;99.90;;;;;;5057283;28;20446;-79
2021/08/22 00:53:56;;;;;;;1999.90;999.90;;;20.60;99.90;;;;;;5057799;28;20820;-79
2021/08/22 00:56:22;;;;;;;1999.90;999.90;;;20.60;99.90;;;;;;5057066;28;20210;-79
2021/08/22 00:58:47;;;;;;;1999.90;999.90;;;20.60;99.90;;;;;;5039458;28;20160;-79
2021/08/22 01:01:21;;;;;;;1999.90;999.90;;;20.50;99.90;;;;;;5057716;28;20536;-80
2021/08/22 01:04:08;;;;;;;1999.90;999.90;;;20.40;99.90;;;;;;5039840;28;20248;-80
2021/08/22 01:06:36;;;;;;;1999.90;999.90;;;20.30;99.90;;;;;;5039111;28;20476;-80
2021/08/22 01:09:09;;;;;;;1999.90;999.90;;;20.20;99.90;;;;;;5057034;28;20417;-80
2021/08/22 01:11:39;;;;;;;1999.90;999.90;;;20.20;99.90;;;;;;5057078;28;20482;-79
2021/08/22 01:14:16;;;;;;;1999.90;999.90;;;20.30;99.90;;;;;;5057200;28;20402;-79
2021/08/22 01:16:46;;;;;;;1999.90;999.90;;;20.40;99.90;;;;;;5056900;28;20453;-79
2021/08/22 01:19:52;;;;;;;1999.90;999.90;;;20.30;99.90;;;;;;5057013;28;20385;-79
2021/08/22 01:22:20;;;;;;;1999.90;999.90;;;20.30;99.90;;;;;;5056983;28;20531;-79
2021/08/22 01:24:47;;;;;;;1999.90;999.90;;;20.20;99.90;;;;;;5057162;28;20904;-80
2021/08/22 01:27:14;;;;;;;1999.90;999.90;;;20.20;99.90;;;;;;5056867;28;20431;-79
2021/08/22 01:29:58;;;;;;;1999.90;999.90;;;20.30;99.90;;;;;;5056224;28;20429;-79
2021/08/22 01:32:44;;;;;;;1999.90;999.90;;;20.30;99.90;;;;;;5040414;28;20441;-79
2021/08/22 01:35:12;;;;;;;1999.90;999.90;;;20.30;99.90;;;;;;5039703;28;20412;-79
2021/08/22 01:37:40;;;;;;;1999.90;999.90;;;20.30;99.90;;;;;;5038553;28;20860;-79
2021/08/22 01:40:08;;;;;;;1999.90;999.90;;;20.20;99.90;;;;;;5056702;28;20483;-79
2021/08/22 01:42:35;;;;;;;1999.90;999.90;;;20.10;99.90;;;;;;5056523;28;20412;-79
2021/08/22 01:45:07;;;;;;;1999.90;999.90;;;20.10;99.90;;;;;;5056390;28;20408;-79
2021/08/22 01:47:35;;;;;;;1999.90;999.90;;;20.00;99.90;;;;;;5056700;28;20488;-79
2021/08/22 01:50:01;;;;;;;1999.90;999.90;;;20.00;99.90;;;;;;5056813;28;20417;-79
2021/08/22 01:52:28;;;;;;;1999.90;999.90;;;20.00;99.90;;;;;;5056196;28;20451;-79
2021/08/22 01:54:54;;;;;;;1999.90;999.90;;;20.00;99.90;;;;;;5057193;28;20784;-79
2021/08/22 01:57:20;;;;;;;1999.90;999.90;;;20.00;99.90;;;;;;5056451;28;20487;-79
2021/08/22 01:59:45;;;;;;;1999.90;999.90;;;20.00;99.90;;;;;;5056517;28;20255;-80
2021/08/22 02:02:11;;;;;;;1999.90;999.90;;;19.90;99.90;;;;;;5057146;28;20483;-80
2021/08/22 02:04:46;;;;;;;1999.90;999.90;;;19.90;99.90;;;;;;5056807;28;20656;-79
2021/08/22 02:07:18;;;;;;;1999.90;999.90;;;19.90;99.90;;;;;;5038106;28;20787;-79
2021/08/22 02:10:10;;;;;;;1999.90;999.90;;;19.90;99.90;;;;;;5056289;28;20400;-79
2021/08/22 02:12:39;;;;;;;1999.90;999.90;;;19.90;99.90;;;;;;5056099;28;20415;-79
2021/08/22 02:15:41;;;;;;;1999.90;999.90;;;19.80;99.90;;;;;;5056104;28;20753;-79
2021/08/22 02:18:15;;;;;;;1999.90;999.90;;;19.80;99.90;;;;;;5021413;28;20428;-79
2021/08/22 02:20:42;;;;;;;1999.90;999.90;;;19.80;99.90;;;;;;5037873;28;20430;-79
2021/08/22 02:23:08;;;;;;;1999.90;999.90;;;19.80;99.90;;;;;;5055759;28;20411;-80
2021/08/22 02:25:35;;;;;;;1999.90;999.90;;;19.90;99.90;;;;;;5037723;28;20418;-79
2021/08/22 02:28:01;;;;;;;1999.90;999.90;;;19.80;99.90;;;;;;5055546;28;20920;-79
2021/08/22 02:30:31;;;;;;;1999.90;999.90;;;19.80;99.90;;;;;;5055867;28;20450;-79
2021/08/22 02:32:57;;;;;;;1999.90;999.90;;;19.80;99.90;;;;;;5055874;28;20726;-79
2021/08/22 02:35:23;;;;;;;1999.90;999.90;;;19.80;99.90;;;;;;5055957;28;20407;-79
2021/08/22 02:37:48;;;;;;;1999.90;999.90;;;19.90;99.90;;;;;;5037605;28;20194;-79
2021/08/22 02:40:15;;;;;;;1999.90;999.90;;;19.80;99.90;;;;;;5037343;28;20513;-80
2021/08/22 02:42:41;;;;;;;1999.90;999.90;;;19.80;99.90;;;;;;5055511;28;20171;-79
2021/08/22 02:45:08;;;;;;;1999.90;999.90;;;19.80;99.90;;;;;;5055578;28;20437;-80
2021/08/22 02:47:33;;;;;;;1999.90;999.90;;;19.80;99.90;;;;;;5037557;28;20211;-79
2021/08/22 02:49:59;;;;;;;1999.90;999.90;;;19.80;99.90;;;;;;5037021;28;20407;-79
2021/08/22 02:52:25;;;;;;;1999.90;999.90;;;19.70;99.90;;;;;;5054718;28;20258;-79
2021/08/22 02:54:50;;;;;;;1999.90;999.90;;;19.70;99.90;;;;;;5037087;28;20169;-79
2021/08/22 02:57:18;;;;;;;1999.90;999.90;;;19.70;99.90;;;;;;5054694;28;20198;-79
2021/08/22 02:59:44;;;;;;;1999.90;999.90;;;19.60;99.90;;;;;;5054886;28;20732;-80
2021/08/22 03:02:10;;;;;;;1999.90;999.90;;;19.60;99.90;;;;;;5055140;28;20427;-79
2021/08/22 03:04:36;;;;;;;1999.90;999.90;;;19.70;99.90;;;;;;5037576;28;20422;-79
2021/08/22 03:07:01;;;;;;;1999.90;999.90;;;19.70;99.90;;;;;;5055026;28;20192;-79
2021/08/22 03:09:27;;;;;;;1999.90;999.90;;;19.70;99.90;;;;;;5055387;28;20167;-80
2021/08/22 03:11:53;;;;;;;1999.90;999.90;;;19.70;99.90;;;;;;5054879;28;20847;-79
2021/08/22 03:14:19;;;;;;;1999.90;999.90;;;19.70;99.90;;;;;;5055400;28;20161;-79
2021/08/22 03:16:45;;;;;;;1999.90;999.90;;;19.70;99.90;;;;;;5054591;28;20184;-79
2021/08/22 03:19:10;;;;;;;1999.90;999.90;;;19.70;99.90;;;;;;5037130;28;20756;-80
2021/08/22 03:21:37;;;;;;;1999.90;999.90;;;19.60;99.90;;;;;;5036069;28;20165;-79
2021/08/22 03:24:02;;;;;;;1999.90;999.90;;;19.70;99.90;;;;;;5037785;28;20171;-79
2021/08/22 03:26:28;;;;;;;1999.90;999.90;;;19.80;99.90;;;;;;5036659;28;20412;-79
2021/08/22 03:28:54;;;;;;;1999.90;999.90;;;19.70;99.90;;;;;;5036830;28;20418;-79
2021/08/22 03:31:20;;;;;;;1999.90;999.90;;;19.70;99.90;;;;;;5054912;28;20219;-79
2021/08/22 03:33:45;;;;;;;1999.90;999.90;;;19.70;99.90;;;;;;5054625;28;20158;-79
2021/08/22 03:36:11;;;;;;;1999.90;999.90;;;19.70;99.90;;;;;;5036474;28;20161;-79
2021/08/22 03:38:37;;;;;;;1999.90;999.90;;;19.70;99.90;;;;;;5054649;28;20239;-79
2021/08/22 03:41:03;;;;;;;1999.90;999.90;;;19.80;99.90;;;;;;5055071;28;20754;-80
2021/08/22 03:43:29;;;;;;;1999.90;999.90;;;19.70;99.90;;;;;;5054473;28;20168;-79
2021/08/22 03:45:55;;;;;;;1999.90;999.90;;;19.80;99.90;;;;;;5054560;28;20403;-79
2021/08/22 03:48:21;;;;;;;1999.90;999.90;;;19.80;99.90;;;;;;5054366;28;20187;-80
2021/08/22 03:50:46;;;;;;;1999.90;999.90;;;19.70;99.90;;;;;;5036251;28;20195;-80
2021/08/22 03:53:12;;;;;;;1999.90;999.90;;;19.70;99.90;;;;;;5054449;28;20162;-80
2021/08/22 03:55:38;;;;;;;1999.90;999.90;;;19.60;99.90;;;;;;5036674;28;20173;-79
2021/08/22 03:58:03;;;;;;;1999.90;999.90;;;19.70;99.90;;;;;;5054449;28;20787;-80
2021/08/22 04:00:29;;;;;;;1999.90;999.90;;;19.70;99.90;;;;;;5054346;28;20258;-79
2021/08/22 04:02:55;;;;;;;1999.90;999.90;;;19.70;99.90;;;;;;5054380;28;20521;-79
2021/08/22 04:05:20;;;;;;;1999.90;999.90;;;19.70;99.90;;;;;;5054296;28;20167;-79
2021/08/22 04:07:49;;;;;;;1999.90;999.90;;;19.70;99.90;;;;;;5054223;28;20265;-79
2021/08/22 04:10:16;;;;;;;1999.90;999.90;;;19.70;99.90;;;;;;5054226;28;20161;-79
2021/08/22 04:12:41;;;;;;;1999.90;999.90;;;19.70;99.90;;;;;;5036056;28;20416;-79
2021/08/22 04:15:08;;;;;;;1999.90;999.90;;;19.60;99.90;;;;;;5054155;28;20447;-80
2021/08/22 04:17:33;;;;;;;1999.90;999.90;;;19.70;99.90;;;;;;5036043;28;20685;-80
2021/08/22 04:19:59;;;;;;;1999.90;999.90;;;19.70;99.90;;;;;;5054127;28;20495;-79
2021/08/22 04:22:27;;;;;;;1999.90;999.90;;;19.70;99.90;;;;;;5054324;28;20636;-79
2021/08/22 04:24:53;;;;;;;1999.90;999.90;;;19.70;99.90;;;;;;5053875;28;20168;-79
2021/08/22 04:27:18;;;;;;;1999.90;999.90;;;19.60;99.90;;;;;;5054345;28;20488;-79
2021/08/22 04:29:44;;;;;;;1999.90;999.90;;;19.70;99.90;;;;;;5036037;28;20177;-79
2021/08/22 04:32:11;;;;;;;1999.90;999.90;;;19.60;99.90;;;;;;5036079;28;20250;-79
2021/08/22 04:34:36;;;;;;;1999.90;999.90;;;19.60;99.90;;;;;;5057743;28;20230;-79
2021/08/22 04:37:02;;;;;;;1999.90;999.90;;;19.60;99.90;;;;;;5057555;28;20823;-79
2021/08/22 04:39:28;;;;;;;1999.90;999.90;;;19.50;99.90;;;;;;5057926;28;20311;-79
2021/08/22 04:41:54;;;;;;;1999.90;999.90;;;19.60;99.90;;;;;;5039707;28;20404;-79
2021/08/22 04:44:19;;;;;;;1999.90;999.90;;;19.50;99.90;;;;;;5057714;28;20173;-79
2021/08/22 04:46:46;;;;;;;1999.90;999.90;;;19.50;99.90;;;;;;5057412;28;20189;-79
2021/08/22 04:49:12;;;;;;;1999.90;999.90;;;19.50;99.90;;;;;;5057381;28;20195;-79
2021/08/22 04:51:38;;;;;;;1999.90;999.90;;;19.40;99.90;;;;;;5056883;28;20435;-79
2021/08/22 04:54:04;;;;;;;1999.90;999.90;;;19.40;99.90;;;;;;5057179;28;20817;-80
2021/08/22 04:56:30;;;;;;;1999.90;999.90;;;19.40;99.90;;;;;;5056817;28;20415;-79
2021/08/22 04:58:55;;;;;;;1999.90;999.90;;;19.30;99.90;;;;;;5057280;28;20171;-79
2021/08/22 05:01:21;;;;;;;1999.90;999.90;;;19.30;99.90;;;;;;5039917;28;20199;-79
2021/08/22 05:03:47;;;;;;;1999.90;999.90;;;19.30;99.90;;;;;;5039905;28;20218;-79
2021/08/22 05:06:12;;;;;;;1999.90;999.90;;;19.30;99.90;;;;;;5057698;28;20697;-79
2021/08/22 05:08:38;;;;;;;1999.90;999.90;;;19.40;99.90;;;;;;5039533;28;20192;-79
2021/08/22 05:11:05;;;;;;;1999.90;999.90;;;19.30;99.90;;;;;;5057170;28;20191;-79
2021/08/22 05:13:33;;;;;;;1999.90;999.90;;;19.20;99.90;;;;;;5056691;28;20490;-79
2021/08/22 05:15:59;;;;;;;1999.90;999.90;;;19.10;99.90;;;;;;5056812;28;20399;-79
2021/08/22 05:18:25;;;;;;;1999.90;999.90;;;19.10;99.90;;;;;;5056497;28;20832;-79
2021/08/22 05:20:52;;;;;;;1999.90;999.90;;;19.20;99.90;;;;;;5038693;28;20173;-79
2021/08/22 05:23:19;;;;;;;1999.90;999.90;;;19.20;99.90;;;;;;5056172;28;20437;-79
2021/08/22 05:25:45;;;;;;;1999.90;999.90;;;19.20;99.90;;;;;;5056319;28;20445;-79
2021/08/22 05:28:10;;;;;;;1999.90;999.90;;;19.10;99.90;;;;;;5038297;28;20427;-79
2021/08/22 05:30:36;;;;;;;1999.90;999.90;;;19.10;99.90;;;;;;5056406;28;20197;-79
2021/08/22 05:33:02;;;;;;;1999.90;999.90;;;19.10;99.90;;;;;;5056352;28;20171;-79
2021/08/22 05:35:28;;;;;;;1999.90;999.90;;;19.10;99.90;;;;;;5056157;28;20247;-79
2021/08/22 05:37:53;;;;;;;1999.90;999.90;;;19.20;99.90;;;;;;5056516;28;20547;-79
2021/08/22 05:40:19;;;;;;;1999.90;999.90;;;19.20;99.90;;;;;;5055995;28;20903;-79
2021/08/22 05:42:45;;;;;;;1999.90;999.90;;;19.20;99.90;;;;;;5055889;28;20451;-79
2021/08/22 05:45:11;;;;;;;1999.90;999.90;;;19.20;99.90;;;;;;5037727;28;20164;-79
2021/08/22 05:47:36;;;;;;;1999.90;999.90;;;19.20;99.90;;;;;;5037783;28;20187;-79
2021/08/22 05:50:04;;;;;;;1999.90;999.90;;;19.20;99.90;;;;;;5055904;28;20159;-79
2021/08/22 05:52:33;;;;;;;1999.90;999.90;;;19.20;99.90;;;;;;5037590;28;20299;-79
2021/08/22 05:54:59;;;;;;;1999.90;999.90;;;19.30;99.90;;;;;;5055878;28;20407;-79
2021/08/22 06:01:29;;;;;;;1999.90;999.90;;;19.50;99.90;;;;;;4969466;28;20191;-86
2021/08/22 06:07:53;;;;;;;1999.90;999.90;;;19.60;99.90;;;;;;4993085;28;20995;-87
2021/08/22 06:14:30;;;;;;;1999.90;999.90;;;19.90;99.90;;;;;;5074566;28;20873;-86
2021/08/22 06:17:10;;;;;;;1999.90;999.90;;;19.80;99.90;;;;;;5074072;28;20926;-86
2021/08/22 06:33:47;;;;;;;1999.90;999.90;;;19.90;99.90;;;;;;5012282;28;20412;-86
2021/08/22 06:37:24;;;;;;;;;;;;;;;;;;;;;
2021/08/22 06:40:10;;;;;;;;;;;;;;;;;;;;;
2021/08/22 06:43:48;;;;;;;1999.90;999.90;;;19.80;99.90;;;;;;5004330;28;20407;-87
2021/08/22 06:46:35;;;;;;;;;;;;;;;;;;;;;
2021/08/22 06:50:14;;;;;;;1999.90;999.90;;;19.80;99.90;;;;;;4992609;28;20396;-86
2021/08/22 06:53:20;;;;;;;;;;;;;;;;;;;;;
2021/08/22 06:56:00;;;;;;;1999.90;999.90;;;19.90;99.90;;;;;;4987837;28;20410;-86
2021/08/22 06:58:52;;;;;;;1999.90;999.90;;;20.00;99.90;;;;;;4975707;28;20435;-86
2021/08/22 07:02:03;;;;;;;1999.90;999.90;;;20.20;99.90;;;;;;4975586;28;20424;-86
2021/08/22 07:05:07;;;;;;;1999.90;999.90;;;20.40;99.90;;;;;;4968315;28;20942;-86
2021/08/22 07:08:41;;;;;;;1999.90;999.90;;;20.40;99.90;;;;;;4936689;29;20439;-87
2021/08/22 07:25:04;;;;;;;1999.90;999.90;;;20.70;99.90;;;;;;5034994;28;20909;-86
2021/08/22 07:27:34;;;;;;;1999.90;999.90;;;20.80;99.90;;;;;;5073324;28;20487;-86
2021/08/22 07:30:27;;;;;;;1999.90;999.90;;;20.70;99.90;;;;;;5051993;28;20836;-87
2021/08/22 07:37:39;;;;;;;1999.90;999.90;;;20.60;99.90;;;;;;4971986;28;20479;-87
2021/08/22 08:14:12;;;;;;;1999.90;999.90;;;20.60;99.90;;;;;;4986756;28;20407;-84
2021/08/22 08:17:13;;;;;;;;;;;;;;;;;;;;;
2021/08/22 08:19:48;;;;;;;1999.90;999.90;;;20.10;99.90;;;;;;5047101;28;20948;-85
2021/08/22 08:30:16;;;;;;;1999.90;999.90;;;19.80;99.90;;;;;;4927604;29;20405;-84
2021/08/22 08:42:55;;;;;;;1999.90;999.90;;;20.60;99.90;;;;;;5044617;28;20179;-84
2021/08/22 08:55:53;;;;;;;1999.90;999.90;;;21.00;99.90;;;;;;5025304;28;20379;-84
2021/08/22 09:21:57;;;;;;;1999.90;999.90;;;21.50;99.90;;;;;;4980966;28;20799;-86
2021/08/22 09:25:22;;;;;;;;;;;;;;;;;;;;;
2021/08/22 09:28:36;;;;;;;;;;;;;;;;;;;;;
2021/08/22 09:35:11;;;;;;;1999.90;999.90;;;21.80;99.90;;;;;;4971191;28;20423;-86
2021/08/22 09:38:27;;;;;;;1999.90;999.90;;;21.80;99.90;;;;;;5022682;28;20526;-86
2021/08/22 09:41:45;;;;;;;1999.90;999.90;;;22.10;99.90;;;;;;5023087;28;20404;-86
2021/08/22 09:45:15;;;;;;;;;;;;;;;;;;;;;
2021/08/22 09:52:56;;;;;;;1999.90;999.90;;;22.20;99.90;;;;;;4928118;29;20464;-86
2021/08/22 09:59:04;;;;;;;;;;;;;;;;;;;;;
2021/08/22 10:08:57;;;;;;;1999.90;999.90;;;21.80;99.90;;;;;;4899829;29;20541;-87
2021/08/22 10:12:18;;;;;;;1999.90;999.90;;;21.70;99.90;;;;;;4898670;29;20529;-86
2021/08/22 10:15:41;;;;;;;;;;;;;;;;;;;;;
2021/08/22 10:34:29;;;;;;;1999.90;999.90;;;23.00;99.90;;;;;;5052661;28;20471;-86
2021/08/22 10:48:57;;;;;;;1999.90;999.90;;;22.90;99.90;;;;;;4953969;28;20478;-86
2021/08/22 10:51:32;;;;;;;1999.90;999.90;;;22.80;99.90;;;;;;4947192;28;20464;-86
2021/08/22 10:54:50;;;;;;;1999.90;999.90;;;23.00;99.90;;;;;;4954301;29;20463;-86
2021/08/22 11:00:16;;;;;;;1999.90;999.90;;;23.10;99.90;;;;;;5049481;28;20478;-86
2021/08/22 11:03:49;;;;;;;;;;;;;;;;;;;;;
2021/08/22 11:13:10;;;;;;;;;;;;;;;;;;;;;
2021/08/22 11:23:29;;;;;;;;;;;;;;;;;;;;;
2021/08/22 11:46:13;;;;;;;1999.90;999.90;;;23.80;85.10;;;;;;4932931;29;20788;-86
2021/08/22 11:58:37;;;;;;;1999.90;999.90;;;23.20;92.90;;;;;;5155066;22;21007;-81
2021/08/22 12:01:16;;;;;;;1999.90;999.90;;;23.10;96.50;;;;;;5038840;28;20415;-82
2021/08/22 12:03:59;;;;;;;1999.90;999.90;;;23.10;98.30;;;;;;5057212;28;20207;-81
2021/08/22 12:06:26;;;;;;;1999.90;999.90;;;23.10;97.60;;;;;;5057450;28;20445;-81
2021/08/22 12:08:51;;;;;;;1999.90;999.90;;;23.10;97.20;;;;;;5057213;28;20434;-81
2021/08/22 12:11:21;;;;;;;1999.90;999.90;;;23.00;99.90;;;;;;5057684;28;20941;-81
2021/08/22 12:13:47;;;;;;;1999.90;999.90;;;22.90;99.70;;;;;;5039931;28;20188;-81
2021/08/22 12:16:25;;;;;;;1999.90;999.90;;;23.00;99.70;;;;;;5056802;28;20403;-81
2021/08/22 12:18:51;;;;;;;1999.90;999.90;;;23.00;96.50;;;;;;5039420;28;20165;-81
2021/08/22 12:21:19;;;;;;;1999.90;999.90;;;22.90;96.40;;;;;;5039071;28;20837;-81
2021/08/22 12:23:50;;;;;;;1999.90;999.90;;;22.90;99.00;;;;;;5056234;28;20457;-81
2021/08/22 12:26:29;;;;;;;1999.90;999.90;;;23.00;99.70;;;;;;5056437;28;20422;-80
2021/08/22 12:28:59;;;;;;;1999.90;999.90;;;23.10;99.90;;;;;;5039275;28;20446;-81
2021/08/22 12:31:39;;;;;;;1999.90;999.90;;;23.30;99.00;;;;;;5056662;28;20456;-82
2021/08/22 12:34:10;;;;;;;1999.90;999.90;;;23.30;96.50;;;;;;5056348;28;20387;-82
2021/08/22 12:36:41;;;;;;;1999.90;999.90;;;23.40;97.30;;;;;;5038008;28;20439;-82
2021/08/22 12:39:09;;;;;;;1999.90;999.90;;;23.40;98.60;;;;;;5056162;28;20399;-81
2021/08/22 12:41:53;;;;;;;1999.90;999.90;;;23.30;99.70;;;;;;5038538;28;20420;-81
2021/08/22 12:44:25;;;;;;;1999.90;999.90;;;23.40;99.90;;;;;;5056647;28;20415;-82
2021/08/22 12:47:00;;;;;;;1999.90;999.90;;;23.40;97.60;;;;;;5056710;28;20930;-81
2021/08/22 12:49:26;;;;;;;1999.90;999.90;;;23.40;96.80;;;;;;5056379;28;20867;-82
2021/08/22 12:51:57;;;;;;;1999.90;999.90;;;23.30;98.30;;;;;;5056759;28;20438;-81
2021/08/22 12:54:25;;;;;;;1999.90;999.90;;;23.20;99.80;;;;;;5040440;28;20409;-81
2021/08/22 12:56:51;;;;;;;1999.90;999.90;;;23.20;99.90;;;;;;5041288;28;20449;-81
2021/08/22 12:59:17;;;;;;;1999.90;999.90;;;23.10;99.50;;;;;;5059274;28;20875;-81
2021/08/22 13:01:44;;;;;;;1999.90;999.90;;;22.80;98.60;;;;;;5041779;28;20411;-81
2021/08/22 13:04:12;;;;;;;1999.90;999.90;;;22.70;99.90;;;;;;5059426;28;20403;-81
2021/08/22 13:06:37;;;;;;;1999.90;999.90;;;22.60;99.90;;;;;;5041591;28;20999;-81
2021/08/22 13:09:03;;;;;;;1999.90;999.90;;;22.60;99.90;;;;;;5059875;28;20399;-81
2021/08/22 13:11:29;;;;;;;1999.90;999.90;;;22.70;99.90;;;;;;5059145;28;20234;-81
2021/08/22 13:13:57;;;;;;;1999.90;999.90;;;22.80;99.90;;;;;;5041745;28;20196;-81
2021/08/22 13:16:24;;;;;;;1999.90;999.90;;;22.90;99.90;;;;;;5041449;28;20168;-81
2021/08/22 13:18:51;;;;;;;1999.90;999.90;;;22.80;99.90;;;;;;5041053;28;20418;-81
2021/08/22 13:21:16;;;;;;;1999.90;999.90;;;22.90;99.90;;;;;;5059853;28;20399;-82
2021/08/22 13:23:42;;;;;;;1999.90;999.90;;;22.90;99.90;;;;;;5059531;28;20403;-81
2021/08/22 13:26:10;;;;;;;1999.90;999.90;;;22.80;99.90;;;;;;5041779;28;20408;-81
2021/08/22 13:28:38;;;;;;;1999.90;999.90;;;22.90;99.90;;;;;;5041233;28;20200;-81
2021/08/22 13:31:04;;;;;;;1999.90;999.90;;;22.80;99.90;;;;;;5059153;28;20435;-81
2021/08/22 13:33:30;;;;;;;1999.90;999.90;;;22.70;99.90;;;;;;5059212;28;20818;-81
2021/08/22 13:35:56;;;;;;;1999.90;999.90;;;22.60;99.90;;;;;;5040980;28;20787;-81
2021/08/22 13:38:21;;;;;;;1999.90;999.90;;;22.40;99.90;;;;;;5058369;28;20419;-81
2021/08/22 13:40:47;;;;;;;1999.90;999.90;;;22.40;99.90;;;;;;5041351;28;20407;-81
2021/08/22 13:43:14;;;;;;;1999.90;999.90;;;22.50;99.90;;;;;;5059258;28;20625;-81
2021/08/22 13:45:43;;;;;;;1999.90;999.90;;;22.60;99.90;;;;;;5059775;28;20399;-81
2021/08/22 13:48:09;;;;;;;1999.90;999.90;;;22.70;99.90;;;;;;5058523;28;20421;-81
2021/08/22 13:50:35;;;;;;;1999.90;999.90;;;22.70;99.90;;;;;;5059102;28;20396;-81
2021/08/22 13:53:03;;;;;;;1999.90;999.90;;;22.60;99.90;;;;;;5058557;28;20810;-81
2021/08/22 13:55:28;;;;;;;1999.90;999.90;;;22.60;99.90;;;;;;5058735;28;20516;-81
2021/08/22 13:57:54;;;;;;;1999.90;999.90;;;22.40;99.90;;;;;;5058560;28;20439;-81
2021/08/22 14:00:20;;;;;;;1999.90;999.90;;;22.50;99.90;;;;;;5057932;28;20417;-81
2021/08/22 14:02:46;;;;;;;1999.90;999.90;;;22.60;99.90;;;;;;5058248;28;20559;-81
2021/08/22 14:05:12;;;;;;;1999.90;999.90;;;22.80;99.90;;;;;;5058513;28;20402;-81
2021/08/22 14:07:37;;;;;;;1999.90;999.90;;;23.10;99.90;;;;;;5058233;28;20224;-81
2021/08/22 14:10:04;;;;;;;1999.90;999.90;;;23.20;99.90;;;;;;5040713;28;20259;-80
2021/08/22 14:12:30;;;;;;;1999.90;999.90;;;23.50;99.90;;;;;;5040584;28;20223;-81
2021/08/22 14:14:56;;;;;;;1999.90;999.90;;;23.70;99.90;;;;;;5040897;28;20415;-81
2021/08/22 14:17:22;;;;;;;1999.90;999.90;;;23.90;99.90;;;;;;5058798;28;20185;-81
2021/08/22 14:19:50;;;;;;;1999.90;999.90;;;23.90;99.90;;;;;;5058915;28;20405;-82
2021/08/22 14:22:17;;;;;;;1999.90;999.90;;;24.00;99.90;;;;;;5058416;28;20173;-81
2021/08/22 14:24:44;;;;;;;1999.90;999.90;;;24.00;99.90;;;;;;5058134;28;20399;-81
2021/08/22 14:27:09;;;;;;;1999.90;999.90;;;24.00;99.90;;;;;;5058225;28;20830;-81
2021/08/22 14:29:35;;;;;;;1999.90;999.90;;;24.00;98.20;;;;;;5057540;28;20407;-81
2021/08/22 14:32:03;;;;;;;1999.90;999.90;;;24.00;98.90;;;;;;5057547;28;20608;-81
2021/08/22 14:34:29;;;;;;;1999.90;999.90;;;23.80;95.40;;;;;;5040071;28;20172;-80
2021/08/22 14:36:55;;;;;;;1999.90;999.90;;;23.60;97.00;;;;;;5057261;28;20415;-82
2021/08/22 14:39:21;;;;;;;1999.90;999.90;;;23.50;97.10;;;;;;5057700;28;20395;-81
2021/08/22 14:41:47;;;;;;;1999.90;999.90;;;23.30;96.10;;;;;;5039953;28;20176;-82
2021/08/22 14:44:13;;;;;;;1999.90;999.90;;;23.30;97.60;;;;;;5039430;28;20412;-81
2021/08/22 14:46:39;;;;;;;1999.90;999.90;;;23.20;98.70;;;;;;5056985;28;20879;-81
2021/08/22 14:49:05;;;;;;;1999.90;999.90;;;23.40;99.90;;;;;;5038687;28;20165;-81
2021/08/22 14:51:31;;;;;;;1999.90;999.90;;;23.70;99.90;;;;;;5056586;28;20545;-81
2021/08/22 14:53:56;;;;;;;1999.90;999.90;;;24.00;98.40;;;;;;5039869;28;20703;-81
2021/08/22 14:56:22;;;;;;;1999.90;999.90;;;23.90;95.00;;;;;;5038765;28;20165;-81
2021/08/22 14:58:48;;;;;;;1999.90;999.90;;;24.10;95.20;;;;;;5038670;28;20184;-81
2021/08/22 15:01:14;;;;;;;1999.90;999.90;;;24.30;91.00;;;;;;5038684;28;20173;-80
2021/08/22 15:03:39;;;;;;;1999.90;999.90;;;24.40;90.90;;;;;;5056769;28;20164;-81
2021/08/22 15:06:07;;;;;;;1999.90;999.90;;;24.40;90.70;;;;;;5057322;28;20214;-80
2021/08/22 15:08:33;;;;;;;1999.90;999.90;;;24.40;91.50;;;;;;5056816;28;20270;-80
2021/08/22 15:10:59;;;;;;;1999.90;999.90;;;24.50;84.60;;;;;;5038914;28;20914;-81
2021/08/22 15:13:24;;;;;;;1999.90;999.90;;;24.50;85.00;;;;;;5056847;28;20430;-81
2021/08/22 15:15:50;;;;;;;1999.90;999.90;;;24.50;85.90;;;;;;5056398;28;20165;-81
2021/08/22 15:18:18;;;;;;;1999.90;999.90;;;24.30;86.40;;;;;;5056905;28;20180;-81
2021/08/22 15:20:45;;;;;;;1999.90;999.90;;;24.30;90.00;;;;;;5056869;28;20525;-81
2021/08/22 15:23:11;;;;;;;1999.90;999.90;;;24.40;90.50;;;;;;5039217;28;20461;-81
2021/08/22 15:25:37;;;;;;;1999.90;999.90;;;24.40;91.90;;;;;;5057551;28;20403;-81
2021/08/22 15:28:05;;;;;;;1999.90;999.90;;;24.30;89.50;;;;;;5039517;28;20430;-80
2021/08/22 15:30:33;;;;;;;1999.90;999.90;;;24.30;88.90;;;;;;5057052;28;20528;-81
2021/08/22 15:33:00;;;;;;;1999.90;999.90;;;24.00;87.10;;;;;;5039104;28;20454;-81
2021/08/22 15:35:29;;;;;;;1999.90;999.90;;;23.90;87.50;;;;;;5039298;28;20826;-81
2021/08/22 15:37:55;;;;;;;1999.90;999.90;;;24.10;86.20;;;;;;5040137;28;20423;-81
2021/08/22 15:40:21;;;;;;;1999.90;999.90;;;24.20;89.30;;;;;;5056912;28;20406;-81
2021/08/22 15:42:47;;;;;;;1999.90;999.90;;;24.30;84.80;;;;;;5056949;28;20407;-82
2021/08/22 15:45:15;;;;;;;1999.90;999.90;;;24.20;85.00;;;;;;5056801;28;20229;-82
2021/08/22 15:47:41;;;;;;;1999.90;999.90;;;24.10;86.90;;;;;;5038425;28;20283;-81
2021/08/22 15:50:07;;;;;;;1999.90;999.90;;;23.90;87.30;;;;;;5057237;28;20434;-81
2021/08/22 15:52:37;;;;;;;1999.90;999.90;;;23.60;90.70;;;;;;5039237;28;20192;-81
2021/08/22 15:55:04;;;;;;;1999.90;999.90;;;23.40;92.90;;;;;;5057177;28;20414;-81
2021/08/22 15:57:31;;;;;;;1999.90;999.90;;;23.20;94.60;;;;;;5038709;28;21040;-81
2021/08/22 15:59:57;;;;;;;1999.90;999.90;;;23.00;97.00;;;;;;5056395;28;20403;-81
2021/08/22 16:02:23;;;;;;;1999.90;999.90;;;22.90;98.80;;;;;;5038977;28;20844;-81
2021/08/22 16:04:49;;;;;;;1999.90;999.90;;;22.90;99.40;;;;;;5056915;28;20403;-81
2021/08/22 16:07:15;;;;;;;1999.90;999.90;;;22.90;99.90;;;;;;5056330;28;20827;-81
2021/08/22 16:09:41;;;;;;;1999.90;999.90;;;23.00;99.90;;;;;;5057185;28;20446;-81
2021/08/22 16:12:07;;;;;;;1999.90;999.90;;;23.00;99.90;;;;;;5056881;28;20189;-83
2021/08/22 16:14:33;;;;;;;1999.90;999.90;;;23.10;99.90;;;;;;5039830;28;20395;-82
2021/08/22 16:16:59;;;;;;;1999.90;999.90;;;23.60;99.90;;;;;;5056603;28;20442;-81
2021/08/22 16:19:25;;;;;;;1999.90;999.90;;;24.10;99.90;;;;;;5057600;28;20406;-81
2021/08/22 16:21:52;;;;;;;1999.90;999.90;;;24.20;99.90;;;;;;5039303;28;20422;-82